createdAt,value
2023-03-18T00:00:32.988Z,1.89
2023-03-18T00:04:35.750Z,1.86
2023-03-18T00:08:35.739Z,1.82
2023-03-18T00:12:33.605Z,1.80
2023-03-18T00:16:31.903Z,1.78
2023-03-18T00:20:44.708Z,1.76
2023-03-18T00:24:42.648Z,1.73
2023-03-18T00:28:40.604Z,1.71
2023-03-18T00:32:40.974Z,1.70
2023-03-18T00:36:38.633Z,1.71
2023-03-18T00:40:49.647Z,1.69
2023-03-18T00:44:47.577Z,1.65
2023-03-18T00:48:45.621Z,1.65
2023-03-18T00:52:43.656Z,1.63
2023-03-18T00:56:44.627Z,1.61
2023-03-18T01:00:42.671Z,1.58
2023-03-18T01:04:40.577Z,1.57
2023-03-18T01:08:39.565Z,1.56
2023-03-18T01:12:39.457Z,1.54
2023-03-18T01:16:37.612Z,1.52
2023-03-18T01:20:36.271Z,1.52
2023-03-18T01:24:33.526Z,1.51
2023-03-18T01:28:31.555Z,1.50
2023-03-18T01:32:30.628Z,1.48
2023-03-18T01:36:30.702Z,1.46
2023-03-18T01:40:31.741Z,1.44
2023-03-18T01:44:32.532Z,1.43
2023-03-18T01:48:32.510Z,1.39
2023-03-18T01:52:39.545Z,1.37
2023-03-18T01:56:37.498Z,1.36
2023-03-18T02:00:35.586Z,1.33
2023-03-18T02:04:35.488Z,1.30
2023-03-18T02:08:34.500Z,1.25
2023-03-18T02:12:38.519Z,1.21
2023-03-18T02:17:01.625Z,1.16
2023-03-18T02:21:18.472Z,1.10
2023-03-18T02:26:01.545Z,1.04
2023-03-18T02:30:01.486Z,1.01
2023-03-18T02:34:01.500Z,0.97
2023-03-18T02:37:59.468Z,0.92
2023-03-18T02:41:58.478Z,0.88
2023-03-18T02:46:14.547Z,0.84
2023-03-18T02:50:12.507Z,0.79
2023-03-18T02:54:21.493Z,0.77
2023-03-18T02:58:20.430Z,0.74
2023-03-18T03:02:19.524Z,0.70
2023-03-18T03:06:17.463Z,0.67
2023-03-18T03:10:16.375Z,0.62
2023-03-18T03:14:15.461Z,0.58
2023-03-18T03:18:14.390Z,0.67
2023-03-18T03:22:12.466Z,0.81
2023-03-18T03:26:10.360Z,0.91
2023-03-18T03:30:08.474Z,1.00
2023-03-18T03:34:06.347Z,1.07
2023-03-18T03:38:04.378Z,1.13
2023-03-18T03:42:02.353Z,1.17
2023-03-18T03:46:03.806Z,1.19
2023-03-18T03:50:01.608Z,1.22
2023-03-18T03:53:59.354Z,1.24
2023-03-18T03:57:57.284Z,1.28
2023-03-18T04:01:55.531Z,1.29
2023-03-18T04:05:53.293Z,1.30
2023-03-18T04:09:52.343Z,1.33
2023-03-18T04:13:50.399Z,1.34
2023-03-18T04:17:49.299Z,1.35
2023-03-18T04:21:47.374Z,1.37
2023-03-18T04:25:45.296Z,1.37
2023-03-18T04:29:43.330Z,1.37
2023-03-18T04:33:41.417Z,1.36
2023-03-18T04:37:41.250Z,1.36
2023-03-18T04:41:40.339Z,1.39
2023-03-18T04:45:39.247Z,1.67
2023-03-18T04:49:37.252Z,1.72
2023-03-18T04:53:37.254Z,1.70
2023-03-18T04:57:35.267Z,1.71
2023-03-18T05:01:34.212Z,1.74
2023-03-18T05:05:32.486Z,1.78
2023-03-18T05:09:31.202Z,1.75
2023-03-18T05:13:30.313Z,1.77
2023-03-18T05:17:28.173Z,1.93
2023-03-18T05:21:30.415Z,2.00
2023-03-18T05:25:28.190Z,2.07
2023-03-18T05:29:26.218Z,2.18
2023-03-18T05:33:33.182Z,2.32
2023-03-18T05:37:31.401Z,2.45
2023-03-18T05:41:31.220Z,2.52
2023-03-18T05:45:31.529Z,2.61
2023-03-18T05:49:30.166Z,2.68
2023-03-18T05:53:41.195Z,2.78
2023-03-18T05:57:44.265Z,2.88
2023-03-18T06:01:42.222Z,3.00
2023-03-18T06:05:41.164Z,3.11
2023-03-18T06:09:40.206Z,3.21
2023-03-18T06:13:38.137Z,3.32
2023-03-18T06:17:36.274Z,3.45
2023-03-18T06:21:34.060Z,3.59
2023-03-18T06:25:34.449Z,3.72
2023-03-18T06:29:32.082Z,3.85
2023-03-18T06:33:34.241Z,3.96
2023-03-18T06:37:33.102Z,4.11
2023-03-18T06:41:31.205Z,4.28
2023-03-18T06:45:43.114Z,4.49
2023-03-18T06:49:41.192Z,4.70
2023-03-18T06:53:43.096Z,4.88
2023-03-18T06:57:41.095Z,5.04
2023-03-18T07:01:46.120Z,5.18
2023-03-18T07:05:44.090Z,5.34
2023-03-18T07:09:43.024Z,5.49
2023-03-18T07:13:41.170Z,5.60
2023-03-18T07:17:48.049Z,5.70
2023-03-18T07:21:47.273Z,5.82
2023-03-18T07:25:46.048Z,5.93
2023-03-18T07:29:44.084Z,6.06
2023-03-18T07:33:41.992Z,6.18
2023-03-18T07:37:40.059Z,6.32
2023-03-18T07:41:38.168Z,6.45
2023-03-18T07:45:43.554Z,6.55
2023-03-18T07:49:41.018Z,6.64
2023-03-18T07:53:39.028Z,6.77
2023-03-18T07:57:36.973Z,6.92
2023-03-18T08:01:35.052Z,7.00
2023-03-18T08:05:33.226Z,7.09
2023-03-18T08:09:31.031Z,7.16
2023-03-18T08:13:28.987Z,7.25
2023-03-18T08:17:27.035Z,7.28
2023-03-18T08:21:24.980Z,7.30
2023-03-18T08:25:23.070Z,7.32
2023-03-18T08:29:21.031Z,7.39
2023-03-18T08:37:35.006Z,7.61
2023-03-18T08:41:33.170Z,7.72
2023-03-18T08:45:31.191Z,7.77
2023-03-18T08:49:28.961Z,7.82
2023-03-18T08:53:26.970Z,7.85
2023-03-18T08:57:24.953Z,7.90
2023-03-18T09:01:23.061Z,7.95
2023-03-18T09:05:20.917Z,7.96
2023-03-18T09:09:18.935Z,8.01
2023-03-18T09:13:16.968Z,8.05
2023-03-18T09:17:14.989Z,8.08
2023-03-18T09:21:13.028Z,8.20
2023-03-18T09:25:22.961Z,8.42
2023-03-18T09:29:20.969Z,8.61
2023-03-18T09:33:18.873Z,8.74
2023-03-18T09:37:16.888Z,8.85
2023-03-18T09:41:32.921Z,8.96
2023-03-18T09:45:51.103Z,9.09
2023-03-18T09:50:09.947Z,9.22
2023-03-18T09:54:13.901Z,9.35
2023-03-18T09:58:16.857Z,9.44
2023-03-18T10:02:14.941Z,9.49
2023-03-18T10:06:19.836Z,9.59
2023-03-18T10:10:39.874Z,9.70
2023-03-18T10:14:47.832Z,9.74
2023-03-18T10:18:48.039Z,9.86
2023-03-18T10:23:12.925Z,10.00
2023-03-18T10:27:35.820Z,10.10
2023-03-18T10:31:45.812Z,10.18
2023-03-18T10:35:59.948Z,10.25
2023-03-18T10:39:57.894Z,10.36
2023-03-18T10:43:55.833Z,10.50
2023-03-18T10:47:57.771Z,10.57
2023-03-18T10:52:09.862Z,10.57
2023-03-18T10:56:16.843Z,10.64
2023-03-18T11:00:14.820Z,10.80
2023-03-18T11:04:18.785Z,11.04
2023-03-18T11:08:20.783Z,11.23
2023-03-18T11:12:41.937Z,11.39
2023-03-18T11:16:54.409Z,11.50
2023-03-18T11:20:56.839Z,11.48
2023-03-18T11:24:55.793Z,11.56
2023-03-18T11:28:56.720Z,11.86
2023-03-18T11:33:12.020Z,12.05
2023-03-18T11:37:12.751Z,12.13
2023-03-18T11:41:36.805Z,12.24
2023-03-18T11:45:38.711Z,12.34
2023-03-18T11:49:40.744Z,12.41
2023-03-18T11:54:06.775Z,12.48
2023-03-18T11:58:35.842Z,12.36
2023-03-18T12:03:07.703Z,12.39
2023-03-18T12:07:35.205Z,12.48
2023-03-18T12:11:34.713Z,12.75
2023-03-18T12:15:59.759Z,12.94
2023-03-18T12:20:18.821Z,13.03
2023-03-18T12:24:41.800Z,13.20
2023-03-18T12:29:01.910Z,13.27
2023-03-18T12:33:16.753Z,13.32
2023-03-18T12:37:38.710Z,13.47
2023-03-18T12:41:58.810Z,13.67
2023-03-18T12:46:01.680Z,13.83
2023-03-18T12:50:08.697Z,13.92
2023-03-18T12:54:13.640Z,13.98
2023-03-18T12:58:26.686Z,13.95
2023-03-18T13:03:07.379Z,14.02
2023-03-18T13:07:26.850Z,14.09
2023-03-18T13:11:46.622Z,14.25
2023-03-18T13:15:52.661Z,14.25
2023-03-18T13:19:51.685Z,14.26
2023-03-18T13:24:16.641Z,14.46
2023-03-18T13:28:46.587Z,14.63
2023-03-18T13:33:05.628Z,14.73
2023-03-18T13:37:12.589Z,14.67
2023-03-18T13:41:25.622Z,14.53
2023-03-18T13:45:25.646Z,14.48
2023-03-18T13:49:32.679Z,14.46
2023-03-18T13:53:37.601Z,14.47
2023-03-18T13:57:41.647Z,14.44
2023-03-18T14:01:40.696Z,14.46
2023-03-18T14:05:56.701Z,14.52
2023-03-18T14:10:19.090Z,14.50
2023-03-18T14:14:19.620Z,14.48
2023-03-18T14:18:19.476Z,14.33
2023-03-18T14:22:29.589Z,14.31
2023-03-18T14:26:34.562Z,14.36
2023-03-18T14:30:44.613Z,14.38
2023-03-18T14:34:45.531Z,14.36
2023-03-18T14:38:54.634Z,14.19
2023-03-18T14:43:05.557Z,14.16
2023-03-18T14:47:06.619Z,14.23
2023-03-18T14:51:06.540Z,14.36
2023-03-18T14:55:06.557Z,14.40
2023-03-18T14:59:08.489Z,14.46
2023-03-18T15:03:21.572Z,14.55
2023-03-18T15:07:22.499Z,14.62
2023-03-18T15:11:21.565Z,14.64
2023-03-18T15:15:28.490Z,14.49
2023-03-18T15:19:27.608Z,14.23
2023-03-18T15:23:28.480Z,13.97
2023-03-18T15:27:32.677Z,13.75
2023-03-18T15:31:40.483Z,13.52
2023-03-18T15:35:40.497Z,13.22
2023-03-18T15:39:50.460Z,13.01
2023-03-18T15:44:02.049Z,12.83
2023-03-18T15:47:59.545Z,12.61
2023-03-18T15:51:59.525Z,12.48
2023-03-18T15:56:06.438Z,12.33
2023-03-18T16:00:05.479Z,12.13
2023-03-18T16:04:04.459Z,11.89
2023-03-18T16:08:06.534Z,11.68
2023-03-18T16:12:08.439Z,11.51
2023-03-18T16:16:06.496Z,11.31
2023-03-18T16:19:47.804Z,11.13
2023-03-18T16:23:12.265Z,10.96
2023-03-18T16:26:37.079Z,10.80
2023-03-18T16:30:01.195Z,10.64
2023-03-18T16:33:26.236Z,10.47
2023-03-18T16:36:53.593Z,10.33
2023-03-18T16:40:20.783Z,10.19
2023-03-18T16:43:45.988Z,10.04
2023-03-18T16:47:21.748Z,9.90
2023-03-18T16:50:48.079Z,9.75
2023-03-18T16:54:20.055Z,9.61
2023-03-18T16:57:48.239Z,9.48
2023-03-18T17:01:17.044Z,9.37
2023-03-18T17:04:41.042Z,9.27
2023-03-18T17:08:04.896Z,9.15
2023-03-18T17:11:28.787Z,9.03
2023-03-18T17:14:56.197Z,8.92
2023-03-18T17:18:22.519Z,8.80
2023-03-18T17:21:46.361Z,8.70
2023-03-18T17:25:11.571Z,8.64
2023-03-18T17:28:40.186Z,8.55
2023-03-18T17:32:04.059Z,8.46
2023-03-18T17:35:29.706Z,8.38
2023-03-18T17:38:58.648Z,8.29
2023-03-18T17:42:32.767Z,8.21
2023-03-18T17:45:58.572Z,8.13
2023-03-18T17:49:26.520Z,8.05
2023-03-18T17:52:53.930Z,7.98
2023-03-18T17:56:20.328Z,7.91
2023-03-18T17:59:44.465Z,7.81
2023-03-18T18:03:21.128Z,7.73
2023-03-18T18:06:48.081Z,7.66
2023-03-18T18:10:15.576Z,7.61
2023-03-18T18:13:40.440Z,7.58
2023-03-18T18:17:15.251Z,7.55
2023-03-18T18:20:39.228Z,7.52
2023-03-18T18:24:03.150Z,7.48
2023-03-18T18:27:27.329Z,7.47
2023-03-18T18:30:52.439Z,7.48
2023-03-18T18:34:17.477Z,7.47
2023-03-18T18:37:41.879Z,7.45
2023-03-18T18:41:06.814Z,7.41
2023-03-18T18:44:30.804Z,7.36
2023-03-18T18:47:57.349Z,7.30
2023-03-18T18:51:25.657Z,7.23
2023-03-18T18:54:50.563Z,7.15
2023-03-18T18:58:19.695Z,7.08
2023-03-18T19:01:43.852Z,7.02
2023-03-18T19:05:08.697Z,6.96
2023-03-18T19:08:36.796Z,6.90
2023-03-18T19:12:01.586Z,6.82
2023-03-18T19:15:26.095Z,6.76
2023-03-18T19:18:50.617Z,6.73
2023-03-18T19:22:17.166Z,6.69
2023-03-18T19:25:41.702Z,6.66
2023-03-18T19:29:07.636Z,6.63
2023-03-18T19:32:31.750Z,6.60
2023-03-18T19:35:56.208Z,6.59
2023-03-18T19:39:22.786Z,6.60
2023-03-18T19:42:47.555Z,6.60
2023-03-18T19:46:21.673Z,6.58
2023-03-18T19:49:46.197Z,6.53
2023-03-18T19:53:12.990Z,6.47
2023-03-18T19:56:37.863Z,6.45
2023-03-18T20:00:05.917Z,6.43
2023-03-18T20:03:31.650Z,6.44
2023-03-18T20:06:57.400Z,6.43
2023-03-18T20:10:24.639Z,6.42
2023-03-18T20:13:49.701Z,6.38
2023-03-18T20:17:35.172Z,6.33
2023-03-18T20:20:59.894Z,6.27
2023-03-18T20:24:30.394Z,6.23
2023-03-18T20:27:56.666Z,6.18
2023-03-18T20:31:21.016Z,6.14
2023-03-18T20:34:50.410Z,6.09
2023-03-18T20:38:21.049Z,6.07
2023-03-18T20:41:45.241Z,6.05
2023-03-18T20:45:18.129Z,6.04
2023-03-18T20:48:44.071Z,6.00
2023-03-18T20:52:32.316Z,5.97
2023-03-18T20:55:56.631Z,5.96
2023-03-18T20:59:20.673Z,5.92
2023-03-18T21:02:44.870Z,5.90
2023-03-18T21:06:14.937Z,5.89
2023-03-18T21:09:39.573Z,5.87
2023-03-18T21:13:37.411Z,5.85
2023-03-18T21:17:01.536Z,5.83
2023-03-18T21:20:31.772Z,5.84
2023-03-18T21:23:59.959Z,5.82
2023-03-18T21:27:29.903Z,5.82
2023-03-18T21:30:57.976Z,5.81
2023-03-18T21:34:23.427Z,5.77
2023-03-18T21:37:52.031Z,5.74
2023-03-18T21:41:22.207Z,5.69
2023-03-18T21:44:47.601Z,5.64
2023-03-18T21:48:14.037Z,5.61
2023-03-18T21:51:40.160Z,5.57
2023-03-18T21:55:07.735Z,5.52
2023-03-18T21:58:31.726Z,5.47
2023-03-18T22:01:55.665Z,5.44
2023-03-18T22:05:23.079Z,5.41
2023-03-18T22:08:48.506Z,5.39
2023-03-18T22:12:20.529Z,5.37
2023-03-18T22:15:44.987Z,5.37
2023-03-18T22:19:10.250Z,5.36
2023-03-18T22:22:38.051Z,5.34
2023-03-18T22:26:02.764Z,5.32
2023-03-18T22:29:27.123Z,5.30
2023-03-18T22:32:51.927Z,5.28
2023-03-18T22:36:17.789Z,5.26
2023-03-18T22:39:43.001Z,5.25
2023-03-18T22:43:18.501Z,5.23
2023-03-18T22:46:42.353Z,5.20
2023-03-18T22:50:07.080Z,5.17
2023-03-18T22:53:39.229Z,5.15
2023-03-18T22:57:03.200Z,5.11
2023-03-18T23:00:46.569Z,5.06
2023-03-18T23:04:13.419Z,5.01
2023-03-18T23:07:37.405Z,4.97
2023-03-18T23:11:02.949Z,4.92
2023-03-18T23:14:28.235Z,4.89
2023-03-18T23:17:52.317Z,4.88
2023-03-18T23:21:18.727Z,4.94
2023-03-18T23:24:42.843Z,5.00
2023-03-18T23:28:06.927Z,5.07
2023-03-18T23:31:31.158Z,5.21
2023-03-18T23:34:55.056Z,5.19
2023-03-18T23:38:19.020Z,5.15
2023-03-18T23:41:43.059Z,5.11
2023-03-18T23:45:08.407Z,5.08
2023-03-18T23:48:32.611Z,5.05
2023-03-18T23:51:56.610Z,5.03
2023-03-18T23:55:45.465Z,5.02
2023-03-18T23:59:05.021Z,5.03
